Weather at Seria Hospital Helipad

Public forecast

Using degrees Celsius for public forecast. Weather courtesy of forecast.io.

Closest aviation weather report (METAR) to Seria Hospital Helipad

Closest report is Miri Airport, 25.7 nm (47.6 km) SW. Retrieved 2022/08/17 15:00 UTC (33 minutes ago):

WBGR 171500Z 06003KT 9999 SCT016 26/25 Q1010

Closest aviation forecast (TAF) to Seria Hospital Helipad

Closest forecast is Miri Airport, 25.7 nm (47.6 km) SW. Retrieved 2022/08/17 12:00 UTC (4 hours ago):

TAF WBGR 171100Z 1712/1812 10005KT 9999 FEW016 TEMPO 1723/1803 3000 TSRA FEW015CB SCT016